createdAt,value
2022-11-15T00:01:34.223Z,11.60
2022-11-15T00:04:02.850Z,11.40
2022-11-15T00:06:31.513Z,11.80
2022-11-15T00:09:01.154Z,11.33
2022-11-15T00:11:31.507Z,12.00
2022-11-15T00:14:00.367Z,11.67
2022-11-15T00:16:28.909Z,12.33
2022-11-15T00:18:58.405Z,11.43
2022-11-15T00:21:26.925Z,12.33
2022-11-15T00:23:55.438Z,12.00
2022-11-15T00:26:23.578Z,12.07
2022-11-15T00:28:54.110Z,12.47
2022-11-15T00:31:22.778Z,11.43
2022-11-15T00:33:51.431Z,12.07
2022-11-15T00:36:19.637Z,11.97
2022-11-15T00:38:47.915Z,11.70
2022-11-15T00:41:16.739Z,11.20
2022-11-15T00:43:45.401Z,12.77
2022-11-15T00:46:15.623Z,11.93
2022-11-15T00:48:44.027Z,10.77
2022-11-15T00:51:12.129Z,11.33
2022-11-15T00:53:40.203Z,11.70
2022-11-15T00:56:08.722Z,10.57
2022-11-15T00:58:36.809Z,9.93
2022-11-15T01:01:09.428Z,10.37
2022-11-15T01:03:40.394Z,10.37
2022-11-15T01:06:09.733Z,10.37
2022-11-15T01:08:37.960Z,9.43
2022-11-15T01:11:07.957Z,9.40
2022-11-15T01:13:37.146Z,9.97
2022-11-15T01:16:08.925Z,9.60
2022-11-15T01:18:38.485Z,8.87
2022-11-15T01:21:10.880Z,9.07
2022-11-15T01:23:39.409Z,10.40
2022-11-15T01:26:11.490Z,10.23
2022-11-15T01:28:41.173Z,10.67
2022-11-15T01:31:13.791Z,9.43
2022-11-15T01:33:43.499Z,9.47
2022-11-15T01:36:14.494Z,10.37
2022-11-15T01:38:42.606Z,10.37
2022-11-15T01:41:18.318Z,9.73
2022-11-15T01:43:46.441Z,10.47
2022-11-15T01:46:32.849Z,9.03
2022-11-15T01:49:05.579Z,10.20
2022-11-15T01:51:35.625Z,9.47
2022-11-15T01:54:07.280Z,9.80
2022-11-15T01:56:40.489Z,9.90
2022-11-15T01:59:10.286Z,9.97
2022-11-15T02:01:38.727Z,9.80
2022-11-15T02:04:13.329Z,9.43
2022-11-15T02:06:43.296Z,9.90
2022-11-15T02:09:11.927Z,9.00
2022-11-15T02:11:40.043Z,9.50
2022-11-15T02:14:09.301Z,9.13
2022-11-15T02:16:45.686Z,9.90
2022-11-15T02:19:30.793Z,8.97
2022-11-15T02:22:15.282Z,8.73
2022-11-15T02:25:05.636Z,8.77
2022-11-15T02:27:55.923Z,8.03
2022-11-15T02:30:30.071Z,9.27
2022-11-15T02:33:05.406Z,9.87
2022-11-15T02:35:46.711Z,8.30
2022-11-15T02:38:23.674Z,9.83
2022-11-15T02:41:01.485Z,8.87
2022-11-15T02:43:50.957Z,8.63
2022-11-15T02:46:46.171Z,9.20
2022-11-15T02:49:15.934Z,9.33
2022-11-15T02:51:46.785Z,8.87
2022-11-15T02:54:19.975Z,9.00
2022-11-15T02:56:48.837Z,8.30
2022-11-15T02:59:35.782Z,8.80
2022-11-15T03:02:18.923Z,8.33
2022-11-15T03:04:55.634Z,8.80
2022-11-15T03:07:30.215Z,8.67
2022-11-15T03:10:07.463Z,8.47
2022-11-15T03:12:44.152Z,9.13
2022-11-15T03:15:19.449Z,8.50
2022-11-15T03:17:53.848Z,9.07
2022-11-15T03:20:22.433Z,9.97
2022-11-15T03:22:51.560Z,8.87
2022-11-15T03:25:23.097Z,9.77
2022-11-15T03:27:54.579Z,8.63
2022-11-15T03:30:22.790Z,9.47
2022-11-15T03:32:57.247Z,9.20
2022-11-15T03:35:26.788Z,10.00
2022-11-15T03:38:00.364Z,9.37
2022-11-15T03:40:40.604Z,9.57
2022-11-15T03:43:14.924Z,9.27
2022-11-15T03:45:49.022Z,9.17
2022-11-15T03:48:23.767Z,8.97
2022-11-15T03:50:52.439Z,9.20
2022-11-15T03:53:20.528Z,8.63
2022-11-15T03:55:48.603Z,9.30
2022-11-15T03:58:16.635Z,8.00
2022-11-15T04:00:44.857Z,9.57
2022-11-15T04:03:12.956Z,8.87
2022-11-15T04:05:42.426Z,7.30
2022-11-15T04:08:10.506Z,9.00
2022-11-15T04:10:38.584Z,9.00
2022-11-15T04:13:06.670Z,8.07
2022-11-15T04:15:35.015Z,7.90
2022-11-15T04:18:03.355Z,8.90
2022-11-15T04:20:50.262Z,8.73
2022-11-15T04:23:38.968Z,7.97
2022-11-15T04:26:09.220Z,8.30
2022-11-15T04:28:57.288Z,8.13
2022-11-15T04:31:25.413Z,8.97
2022-11-15T04:33:54.000Z,9.40
2022-11-15T04:36:39.390Z,8.80
2022-11-15T04:39:09.245Z,8.60
2022-11-15T04:41:37.341Z,8.60
2022-11-15T04:44:05.531Z,9.17
2022-11-15T04:46:33.594Z,8.87
2022-11-15T04:49:01.672Z,8.83
2022-11-15T04:51:29.732Z,8.63
2022-11-15T04:53:58.272Z,9.43
2022-11-15T04:56:27.708Z,9.17
2022-11-15T04:58:55.825Z,8.67
2022-11-15T05:01:24.087Z,8.50
2022-11-15T05:04:09.776Z,8.20
2022-11-15T05:06:37.914Z,8.80
2022-11-15T05:09:06.329Z,7.90
2022-11-15T05:11:35.782Z,8.23
2022-11-15T05:14:03.870Z,8.07
2022-11-15T05:16:31.949Z,8.33
2022-11-15T05:19:00.113Z,7.27
2022-11-15T05:21:28.199Z,7.77
2022-11-15T05:23:56.250Z,7.37
2022-11-15T05:26:24.716Z,8.40
2022-11-15T05:28:56.663Z,7.93
2022-11-15T05:31:25.076Z,7.10
2022-11-15T05:33:54.235Z,7.97
2022-11-15T05:36:29.644Z,7.53
2022-11-15T05:38:57.864Z,8.00
2022-11-15T05:41:31.370Z,7.53
2022-11-15T05:44:03.181Z,7.07
2022-11-15T05:46:31.957Z,6.67
2022-11-15T05:49:00.876Z,6.93
2022-11-15T05:51:30.471Z,7.53
2022-11-15T05:54:00.225Z,6.83
2022-11-15T05:56:28.595Z,7.27
2022-11-15T05:58:59.885Z,6.60
2022-11-15T06:01:29.769Z,6.70
2022-11-15T06:03:58.057Z,7.20
2022-11-15T06:06:26.156Z,7.30
2022-11-15T06:08:54.256Z,7.20
2022-11-15T06:11:22.348Z,7.67
2022-11-15T06:13:50.444Z,7.40
2022-11-15T06:16:18.765Z,7.10
2022-11-15T06:18:48.184Z,7.20
2022-11-15T06:21:16.292Z,7.00
2022-11-15T06:23:44.444Z,7.00
2022-11-15T06:26:12.690Z,8.10
2022-11-15T06:28:40.817Z,7.20
2022-11-15T06:31:11.970Z,7.20
2022-11-15T06:33:40.017Z,7.40
2022-11-15T06:36:17.553Z,6.97
2022-11-15T06:38:46.034Z,8.40
2022-11-15T06:41:15.703Z,7.07
2022-11-15T06:43:44.144Z,7.23
2022-11-15T06:46:12.546Z,7.03
2022-11-15T06:48:40.664Z,8.00
2022-11-15T06:51:10.152Z,8.00
2022-11-15T06:53:38.364Z,7.63
2022-11-15T06:56:08.434Z,7.50
2022-11-15T06:58:37.128Z,7.63
2022-11-15T07:01:09.483Z,7.60
2022-11-15T07:03:38.622Z,8.00
2022-11-15T07:06:07.931Z,7.37
2022-11-15T07:08:39.000Z,7.20
2022-11-15T07:11:09.082Z,7.90
2022-11-15T07:13:38.429Z,7.47
2022-11-15T07:16:07.961Z,7.30
2022-11-15T07:18:37.092Z,7.30
2022-11-15T07:21:06.117Z,7.23
2022-11-15T07:23:34.756Z,7.57
2022-11-15T07:26:04.373Z,6.77
2022-11-15T07:28:32.761Z,7.63
2022-11-15T07:31:04.014Z,7.23
2022-11-15T07:33:32.397Z,6.90
2022-11-15T07:36:02.902Z,9.10
2022-11-15T07:38:31.510Z,6.77
2022-11-15T07:41:00.762Z,7.00
2022-11-15T07:43:31.053Z,6.67
2022-11-15T07:45:59.904Z,7.63
2022-11-15T07:48:42.165Z,6.73
2022-11-15T07:51:14.990Z,6.63
2022-11-15T07:53:43.304Z,6.90
2022-11-15T07:56:12.119Z,7.43
2022-11-15T07:58:41.631Z,6.37
2022-11-15T08:01:12.385Z,6.30
2022-11-15T08:03:40.614Z,6.30
2022-11-15T08:06:08.823Z,6.50
2022-11-15T08:08:36.869Z,6.47
2022-11-15T08:11:05.055Z,6.50
2022-11-15T08:13:33.308Z,6.27
2022-11-15T08:16:06.524Z,6.53
2022-11-15T08:18:34.854Z,5.80
2022-11-15T08:21:03.962Z,6.50
2022-11-15T08:23:33.233Z,5.67
2022-11-15T08:26:03.293Z,6.77
2022-11-15T08:28:32.205Z,6.00
2022-11-15T08:31:00.325Z,6.10
2022-11-15T08:33:30.945Z,6.20
2022-11-15T08:35:59.855Z,6.03
2022-11-15T08:38:29.811Z,5.97
2022-11-15T08:41:03.494Z,6.57
2022-11-15T08:43:32.607Z,5.90
2022-11-15T08:46:01.193Z,5.97
2022-11-15T08:48:32.730Z,6.37
2022-11-15T08:51:01.136Z,5.50
2022-11-15T08:53:29.273Z,5.97
2022-11-15T08:55:57.565Z,6.57
2022-11-15T08:58:25.683Z,5.63
2022-11-15T09:00:54.044Z,6.37
2022-11-15T09:03:22.338Z,6.43
2022-11-15T09:05:57.566Z,22.97
2022-11-15T09:08:46.557Z,9.87
2022-11-15T09:11:15.602Z,19.83
2022-11-15T09:13:43.943Z,39.17
2022-11-15T09:16:13.078Z,12.43
2022-11-15T09:18:41.166Z,6.40
2022-11-15T09:21:11.829Z,5.53
2022-11-15T09:23:40.464Z,5.37
2022-11-15T09:26:08.664Z,5.57
2022-11-15T09:28:37.365Z,5.20
2022-11-15T09:31:07.682Z,5.47
2022-11-15T09:33:36.100Z,5.43
2022-11-15T09:36:05.913Z,5.10
2022-11-15T09:38:38.579Z,5.07
2022-11-15T09:41:31.925Z,5.97
2022-11-15T09:44:13.390Z,5.17
2022-11-15T09:46:52.266Z,5.77
2022-11-15T09:49:21.119Z,5.33
2022-11-15T09:51:52.216Z,5.43
2022-11-15T09:57:22.553Z,5.13
2022-11-15T10:00:44.091Z,5.03
2022-11-15T10:03:12.869Z,5.00
2022-11-15T10:05:44.452Z,4.87
2022-11-15T10:08:26.840Z,5.10
2022-11-15T10:11:35.663Z,5.23
2022-11-15T10:13:54.815Z,5.13
2022-11-15T10:16:44.095Z,5.97
2022-11-15T10:19:21.939Z,5.73
2022-11-15T10:22:01.567Z,4.53
2022-11-15T10:24:34.064Z,5.33
2022-11-15T10:27:03.731Z,4.97
2022-11-15T10:29:32.072Z,5.03
2022-11-15T10:32:00.254Z,5.07
2022-11-15T10:34:28.769Z,5.27
2022-11-15T10:36:58.809Z,6.40
2022-11-15T10:39:28.396Z,6.33
2022-11-15T10:41:58.018Z,5.70
2022-11-15T10:44:30.681Z,5.37
2022-11-15T10:47:27.164Z,5.30
2022-11-15T10:49:58.330Z,5.80
2022-11-15T10:52:26.684Z,6.50
2022-11-15T10:54:58.877Z,7.13
2022-11-15T10:57:30.366Z,6.67
2022-11-15T11:00:03.150Z,7.60
2022-11-15T11:02:34.522Z,6.40
2022-11-15T11:05:03.498Z,5.93
2022-11-15T11:07:34.778Z,6.57
2022-11-15T11:10:22.828Z,6.33
2022-11-15T11:12:53.593Z,6.47
2022-11-15T11:15:26.413Z,6.23
2022-11-15T11:18:02.866Z,6.80
2022-11-15T11:20:38.379Z,6.67
2022-11-15T11:23:37.058Z,7.13
2022-11-15T11:26:19.984Z,6.77
2022-11-15T11:28:56.442Z,6.63
2022-11-15T11:31:36.041Z,7.30
2022-11-15T11:34:17.519Z,6.37
2022-11-15T11:36:52.575Z,6.57
2022-11-15T11:39:29.142Z,6.47
2022-11-15T11:42:10.087Z,7.00
2022-11-15T11:44:49.306Z,6.63
2022-11-15T11:47:25.303Z,8.23
2022-11-15T11:49:56.060Z,8.70
2022-11-15T11:52:28.986Z,9.83
2022-11-15T11:55:03.443Z,10.23
2022-11-15T11:57:40.124Z,10.27
2022-11-15T12:00:19.681Z,10.43
2022-11-15T12:02:56.933Z,10.43
2022-11-15T12:05:32.655Z,10.43
2022-11-15T12:08:06.636Z,10.00
2022-11-15T12:10:36.726Z,11.83
2022-11-15T12:13:08.533Z,10.53
2022-11-15T12:15:42.943Z,10.73
2022-11-15T12:18:15.282Z,11.00
2022-11-15T12:20:51.872Z,9.67
2022-11-15T12:23:25.893Z,8.90
2022-11-15T12:25:58.925Z,9.00
2022-11-15T12:28:37.448Z,7.93
2022-11-15T12:31:08.918Z,8.97
2022-11-15T12:33:40.444Z,8.37
2022-11-15T12:36:13.116Z,8.30
2022-11-15T12:38:58.160Z,7.63
2022-11-15T12:41:27.904Z,7.67
2022-11-15T12:43:57.154Z,8.10
2022-11-15T12:47:03.797Z,7.73
2022-11-15T12:49:48.882Z,7.23
2022-11-15T12:52:17.605Z,7.70
2022-11-15T12:55:00.467Z,8.23
2022-11-15T12:57:42.964Z,8.10
2022-11-15T13:00:49.269Z,7.70
2022-11-15T13:03:27.107Z,7.67
2022-11-15T13:06:10.095Z,7.60
2022-11-15T13:08:49.399Z,7.00
2022-11-15T13:11:52.720Z,7.50
2022-11-15T13:14:47.495Z,6.87
2022-11-15T13:17:38.750Z,6.50
2022-11-15T13:20:29.045Z,6.33
2022-11-15T13:23:09.396Z,6.60
2022-11-15T13:26:21.785Z,6.43
2022-11-15T13:28:52.905Z,6.47
2022-11-15T13:31:36.868Z,6.83
2022-11-15T13:34:44.261Z,7.23
2022-11-15T13:37:14.928Z,6.23
2022-11-15T13:39:43.028Z,6.53
2022-11-15T13:42:17.254Z,6.80
2022-11-15T13:44:58.102Z,7.07
2022-11-15T13:47:28.950Z,7.20
2022-11-15T13:49:59.254Z,7.60
2022-11-15T13:52:33.051Z,7.43
2022-11-15T13:55:06.956Z,8.03
2022-11-15T13:57:42.090Z,8.33
2022-11-15T14:00:29.347Z,8.33
2022-11-15T14:02:58.345Z,7.93
2022-11-15T14:05:27.307Z,8.70
2022-11-15T14:07:58.972Z,8.33
2022-11-15T14:10:30.154Z,8.33
2022-11-15T14:12:58.960Z,7.33
2022-11-15T14:15:31.309Z,6.90
2022-11-15T14:17:59.604Z,7.17
2022-11-15T14:20:34.603Z,7.17
2022-11-15T14:23:06.308Z,6.80
2022-11-15T14:25:35.357Z,6.73
2022-11-15T14:28:30.174Z,7.10
2022-11-15T14:31:00.189Z,6.30
2022-11-15T14:33:31.415Z,6.60
2022-11-15T14:36:03.961Z,6.20
2022-11-15T14:38:33.957Z,6.60
2022-11-15T14:41:02.377Z,6.43
2022-11-15T14:43:30.494Z,6.67
2022-11-15T14:45:58.749Z,5.80
2022-11-15T14:48:26.864Z,6.90
2022-11-15T14:50:55.009Z,6.80
2022-11-15T14:53:23.199Z,6.77
2022-11-15T14:55:52.815Z,6.63
2022-11-15T14:58:20.940Z,7.40
2022-11-15T15:00:49.029Z,6.93
2022-11-15T15:03:17.129Z,6.70
2022-11-15T15:05:46.411Z,6.97
2022-11-15T15:08:14.624Z,7.03
2022-11-15T15:10:44.587Z,6.53
2022-11-15T15:13:18.858Z,7.07
2022-11-15T15:15:47.248Z,7.00
2022-11-15T15:18:16.373Z,7.13
2022-11-15T15:20:46.830Z,6.57
2022-11-15T15:23:19.492Z,6.67
2022-11-15T15:25:48.877Z,6.77
2022-11-15T15:28:18.568Z,7.60
2022-11-15T15:30:46.637Z,8.00
2022-11-15T15:33:14.831Z,7.37
2022-11-15T15:35:43.178Z,7.43
2022-11-15T15:38:13.526Z,7.13
2022-11-15T15:40:41.684Z,7.10
2022-11-15T15:43:10.339Z,7.47
2022-11-15T15:45:41.284Z,7.33
2022-11-15T15:48:13.766Z,7.27
2022-11-15T15:50:43.836Z,7.87
2022-11-15T15:53:12.994Z,7.60
2022-11-15T15:55:41.441Z,7.50
2022-11-15T15:58:09.684Z,7.37
2022-11-15T16:00:39.882Z,7.20
2022-11-15T16:03:08.038Z,7.97
2022-11-15T16:05:36.143Z,6.83
2022-11-15T16:08:05.352Z,7.40
2022-11-15T16:10:35.106Z,7.43
2022-11-15T16:13:03.252Z,7.03
2022-11-15T16:15:32.830Z,7.03
2022-11-15T16:18:03.222Z,7.50
2022-11-15T16:20:37.430Z,7.03
2022-11-15T16:23:09.355Z,6.20
2022-11-15T16:25:41.961Z,7.50
2022-11-15T16:28:21.437Z,6.80
2022-11-15T16:30:53.889Z,6.90
2022-11-15T16:33:26.255Z,6.30
2022-11-15T16:35:54.388Z,5.80
2022-11-15T16:38:22.667Z,6.50
2022-11-15T16:40:50.884Z,5.80
2022-11-15T16:43:19.223Z,6.20
2022-11-15T16:45:47.525Z,6.47
2022-11-15T16:48:24.015Z,6.50
2022-11-15T16:50:56.629Z,5.83
2022-11-15T16:53:24.995Z,6.00
2022-11-15T16:55:53.073Z,5.83
2022-11-15T16:58:21.171Z,5.77
2022-11-15T17:00:53.260Z,5.13
2022-11-15T17:03:21.955Z,5.73
2022-11-15T17:05:50.599Z,5.87
2022-11-15T17:08:22.084Z,5.53
2022-11-15T17:10:50.556Z,4.80
2022-11-15T17:13:18.750Z,5.90
2022-11-15T17:15:46.875Z,5.07
2022-11-15T17:18:15.811Z,4.60
2022-11-15T17:20:44.427Z,4.50
2022-11-15T17:23:15.562Z,5.23
2022-11-15T17:25:45.095Z,7.73
2022-11-15T17:28:13.193Z,9.83
2022-11-15T17:30:43.853Z,10.80
2022-11-15T17:33:12.008Z,6.23
2022-11-15T17:35:40.081Z,4.83
2022-11-15T17:38:08.157Z,4.63
2022-11-15T17:40:36.289Z,4.23
2022-11-15T17:43:07.241Z,4.80
2022-11-15T17:45:35.380Z,3.70
2022-11-15T17:48:03.784Z,3.57
2022-11-15T17:50:31.851Z,3.90
2022-11-15T17:53:01.007Z,4.00
2022-11-15T17:55:29.092Z,3.83
2022-11-15T17:57:57.146Z,4.10
2022-11-15T18:00:26.782Z,4.57
2022-11-15T18:02:54.827Z,4.30
2022-11-15T18:05:22.899Z,4.40
2022-11-15T18:07:51.524Z,4.10
2022-11-15T18:10:19.694Z,3.87
2022-11-15T18:12:47.766Z,4.10
2022-11-15T18:15:15.865Z,3.90
2022-11-15T18:17:45.354Z,3.83
2022-11-15T18:20:13.877Z,4.13
2022-11-15T18:22:41.908Z,3.80
2022-11-15T18:25:10.634Z,4.33
2022-11-15T18:27:38.804Z,3.67
2022-11-15T18:30:07.961Z,3.73
2022-11-15T18:32:36.018Z,3.53
2022-11-15T18:35:06.533Z,3.40
2022-11-15T18:37:34.749Z,3.60
2022-11-15T18:40:02.817Z,3.77
2022-11-15T18:42:33.197Z,4.37
2022-11-15T18:45:01.859Z,3.80
2022-11-15T18:47:31.659Z,4.60
2022-11-15T18:49:59.767Z,4.40
2022-11-15T18:52:29.227Z,3.87
2022-11-15T18:54:57.312Z,3.30
2022-11-15T18:57:25.410Z,3.70
2022-11-15T18:59:53.552Z,3.37
2022-11-15T19:02:21.606Z,3.23
2022-11-15T19:04:49.689Z,3.20
2022-11-15T19:07:17.787Z,3.77
2022-11-15T19:09:47.584Z,3.50
2022-11-15T19:12:15.652Z,3.40
2022-11-15T19:14:43.727Z,3.43
2022-11-15T19:17:11.839Z,3.50
2022-11-15T19:19:39.923Z,3.60
2022-11-15T19:22:07.973Z,3.43
2022-11-15T19:24:36.076Z,3.40
2022-11-15T19:27:05.600Z,3.30
2022-11-15T19:29:33.685Z,4.27
2022-11-15T19:32:02.225Z,3.17
2022-11-15T19:34:30.319Z,3.90
2022-11-15T19:36:58.397Z,3.67
2022-11-15T19:39:26.476Z,3.80
2022-11-15T19:41:54.613Z,3.80
2022-11-15T19:44:26.328Z,4.30
2022-11-15T19:46:54.399Z,3.50
2022-11-15T19:49:22.456Z,3.03
2022-11-15T19:51:50.578Z,3.30
2022-11-15T19:54:18.759Z,3.37
2022-11-15T19:56:46.892Z,4.00
2022-11-15T19:59:15.274Z,4.30
2022-11-15T20:01:44.748Z,4.83
2022-11-15T20:04:12.857Z,3.73
2022-11-15T20:06:42.669Z,3.60
2022-11-15T20:09:13.983Z,4.00
2022-11-15T20:11:42.219Z,3.70
2022-11-15T20:14:11.728Z,3.53
2022-11-15T20:16:40.318Z,3.83
2022-11-15T20:19:12.353Z,3.53
2022-11-15T20:21:40.684Z,3.57
2022-11-15T20:24:09.257Z,3.30
2022-11-15T20:26:37.408Z,3.80
2022-11-15T20:29:05.441Z,3.90
2022-11-15T20:31:34.100Z,4.80
2022-11-15T20:34:02.161Z,4.30
2022-11-15T20:36:31.660Z,3.77
2022-11-15T20:39:00.410Z,3.83
2022-11-15T20:41:29.256Z,3.70
2022-11-15T20:43:57.377Z,3.83
2022-11-15T20:46:25.574Z,3.80
2022-11-15T20:48:53.631Z,3.90
2022-11-15T20:51:22.030Z,4.23
2022-11-15T20:53:51.804Z,3.70
2022-11-15T20:56:21.556Z,4.03
2022-11-15T20:58:51.236Z,4.30
2022-11-15T21:01:23.696Z,4.10
2022-11-15T21:03:52.420Z,3.80
2022-11-15T21:06:21.075Z,3.63
2022-11-15T21:09:07.127Z,4.50
2022-11-15T21:11:54.556Z,4.03
2022-11-15T21:14:22.650Z,4.47
2022-11-15T21:16:50.813Z,4.20
2022-11-15T21:19:21.621Z,4.30
2022-11-15T21:21:53.840Z,4.90
2022-11-15T21:24:22.256Z,4.27
2022-11-15T21:26:51.719Z,3.63
2022-11-15T21:29:19.830Z,3.67
2022-11-15T21:31:49.050Z,3.70
2022-11-15T21:34:19.223Z,4.57
2022-11-15T21:36:47.546Z,3.53
2022-11-15T21:39:15.632Z,4.50
2022-11-15T21:41:43.683Z,4.10
2022-11-15T21:44:13.138Z,4.60
2022-11-15T21:46:41.344Z,4.43
2022-11-15T21:49:09.702Z,4.40
2022-11-15T21:51:37.992Z,5.07
2022-11-15T21:54:06.252Z,4.57
2022-11-15T21:56:34.823Z,3.90
2022-11-15T21:59:03.076Z,4.20
2022-11-15T22:01:58.369Z,4.73
2022-11-15T22:04:26.465Z,4.97
2022-11-15T22:06:54.586Z,4.80
2022-11-15T22:09:23.708Z,5.20
2022-11-15T22:11:51.950Z,4.60
2022-11-15T22:14:31.413Z,4.83
2022-11-15T22:17:00.907Z,5.10
2022-11-15T22:19:29.054Z,5.03
2022-11-15T22:21:57.141Z,4.83
2022-11-15T22:24:25.453Z,5.27
2022-11-15T22:26:53.546Z,4.67
2022-11-15T22:29:21.656Z,4.77
2022-11-15T22:31:49.752Z,5.00
2022-11-15T22:34:19.294Z,5.70
2022-11-15T22:37:18.394Z,6.20
2022-11-15T22:39:35.570Z,5.90
2022-11-15T22:42:03.683Z,6.40
2022-11-15T22:44:31.859Z,6.10
2022-11-15T22:47:00.058Z,5.70
2022-11-15T22:49:29.572Z,5.30
2022-11-15T22:51:57.663Z,5.80
2022-11-15T22:54:25.822Z,6.50
2022-11-15T22:56:53.937Z,6.50
2022-11-15T22:59:22.051Z,6.20
2022-11-15T23:01:51.038Z,6.20
2022-11-15T23:04:19.258Z,6.40
2022-11-15T23:06:49.188Z,6.23
2022-11-15T23:09:18.459Z,6.70
2022-11-15T23:12:03.750Z,6.47
2022-11-15T23:14:31.871Z,6.30
2022-11-15T23:17:00.220Z,6.93
2022-11-15T23:19:28.345Z,6.10
2022-11-15T23:22:15.253Z,6.77
2022-11-15T23:24:43.412Z,6.63
2022-11-15T23:27:15.209Z,6.80
2022-11-15T23:29:57.190Z,6.27
2022-11-15T23:32:42.815Z,6.90
2022-11-15T23:35:10.971Z,6.53
2022-11-15T23:37:40.466Z,6.53
2022-11-15T23:40:10.045Z,7.53
2022-11-15T23:42:38.158Z,7.93
2022-11-15T23:45:07.476Z,7.53
2022-11-15T23:47:35.685Z,7.23
2022-11-15T23:50:04.645Z,7.53
2022-11-15T23:52:33.310Z,8.20
2022-11-15T23:55:03.743Z,7.77
2022-11-15T23:57:31.849Z,8.03
